sensor_id;sensor_type;location;lat;lon;timestamp;P1;durP1;ratioP1;P2;durP2;ratioP2
40705;SDS011;35790;50.790;20.800;2022-09-17T00:00:10;25.20;;;5.47;;
40705;SDS011;35790;50.790;20.800;2022-09-17T00:02:58;10.98;;;5.22;;
40705;SDS011;35790;50.790;20.800;2022-09-17T00:05:46;13.30;;;5.35;;
40705;SDS011;35790;50.790;20.800;2022-09-17T00:08:34;7.47;;;5.72;;
40705;SDS011;35790;50.790;20.800;2022-09-17T00:11:27;4.58;;;3.60;;
40705;SDS011;35790;50.790;20.800;2022-09-17T00:14:16;5.62;;;4.90;;
40705;SDS011;35790;50.790;20.800;2022-09-17T00:17:04;17.20;;;4.62;;
40705;SDS011;35790;50.790;20.800;2022-09-17T00:19:51;8.00;;;3.60;;
40705;SDS011;35790;50.790;20.800;2022-09-17T00:22:38;4.65;;;3.95;;
40705;SDS011;35790;50.790;20.800;2022-09-17T00:25:26;10.53;;;5.28;;
40705;SDS011;35790;50.790;20.800;2022-09-17T00:28:13;9.53;;;5.87;;
40705;SDS011;35790;50.790;20.800;2022-09-17T00:31:05;6.20;;;4.37;;
40705;SDS011;35790;50.790;20.800;2022-09-17T00:33:53;4.62;;;3.92;;
40705;SDS011;35790;50.790;20.800;2022-09-17T00:36:40;5.50;;;3.80;;
40705;SDS011;35790;50.790;20.800;2022-09-17T00:39:28;8.05;;;4.40;;
40705;SDS011;35790;50.790;20.800;2022-09-17T00:42:15;7.65;;;4.62;;
40705;SDS011;35790;50.790;20.800;2022-09-17T00:45:04;9.55;;;4.87;;
40705;SDS011;35790;50.790;20.800;2022-09-17T00:47:56;7.58;;;4.95;;
40705;SDS011;35790;50.790;20.800;2022-09-17T00:50:47;6.70;;;4.47;;
40705;SDS011;35790;50.790;20.800;2022-09-17T00:53:34;6.83;;;5.12;;
40705;SDS011;35790;50.790;20.800;2022-09-17T00:56:23;7.92;;;6.60;;
40705;SDS011;35790;50.790;20.800;2022-09-17T00:59:13;12.23;;;6.35;;
40705;SDS011;35790;50.790;20.800;2022-09-17T01:02:00;8.43;;;5.80;;
40705;SDS011;35790;50.790;20.800;2022-09-17T01:04:48;7.83;;;5.33;;
40705;SDS011;35790;50.790;20.800;2022-09-17T01:13:59;8.60;;;5.10;;
40705;SDS011;35790;50.790;20.800;2022-09-17T01:16:54;9.45;;;4.40;;
40705;SDS011;35790;50.790;20.800;2022-09-17T01:32:11;5.10;;;4.60;;
40705;SDS011;35790;50.790;20.800;2022-09-17T01:38:31;8.18;;;4.12;;
40705;SDS011;35790;50.790;20.800;2022-09-17T01:41:28;5.92;;;3.70;;
40705;SDS011;35790;50.790;20.800;2022-09-17T01:44:24;6.40;;;4.72;;
40705;SDS011;35790;50.790;20.800;2022-09-17T01:47:20;5.95;;;4.12;;
40705;SDS011;35790;50.790;20.800;2022-09-17T01:50:22;7.60;;;4.50;;
40705;SDS011;35790;50.790;20.800;2022-09-17T01:53:13;8.08;;;4.33;;
40705;SDS011;35790;50.790;20.800;2022-09-17T01:56:02;9.00;;;4.78;;
40705;SDS011;35790;50.790;20.800;2022-09-17T01:58:51;10.43;;;5.55;;
40705;SDS011;35790;50.790;20.800;2022-09-17T02:01:41;5.87;;;4.80;;
40705;SDS011;35790;50.790;20.800;2022-09-17T02:04:35;9.33;;;4.60;;
40705;SDS011;35790;50.790;20.800;2022-09-17T02:07:22;6.42;;;4.97;;
40705;SDS011;35790;50.790;20.800;2022-09-17T02:16:04;6.40;;;3.67;;
40705;SDS011;35790;50.790;20.800;2022-09-17T02:22:02;15.00;;;5.90;;
40705;SDS011;35790;50.790;20.800;2022-09-17T02:25:13;13.70;;;5.67;;
40705;SDS011;35790;50.790;20.800;2022-09-17T02:31:03;8.43;;;4.53;;
40705;SDS011;35790;50.790;20.800;2022-09-17T02:33:51;11.48;;;4.95;;
40705;SDS011;35790;50.790;20.800;2022-09-17T02:36:40;8.70;;;4.10;;
40705;SDS011;35790;50.790;20.800;2022-09-17T02:39:27;10.55;;;4.65;;
40705;SDS011;35790;50.790;20.800;2022-09-17T02:54:38;6.25;;;4.65;;
40705;SDS011;35790;50.790;20.800;2022-09-17T02:57:37;7.65;;;5.08;;
40705;SDS011;35790;50.790;20.800;2022-09-17T03:00:29;7.00;;;4.60;;
40705;SDS011;35790;50.790;20.800;2022-09-17T03:03:21;12.95;;;5.15;;
40705;SDS011;35790;50.790;20.800;2022-09-17T03:06:11;11.05;;;4.25;;
40705;SDS011;35790;50.790;20.800;2022-09-17T03:08:59;5.85;;;4.30;;
40705;SDS011;35790;50.790;20.800;2022-09-17T03:11:46;6.22;;;4.50;;
40705;SDS011;35790;50.790;20.800;2022-09-17T03:14:34;11.83;;;3.95;;
40705;SDS011;35790;50.790;20.800;2022-09-17T03:17:21;6.35;;;4.10;;
40705;SDS011;35790;50.790;20.800;2022-09-17T03:20:08;9.23;;;4.70;;
40705;SDS011;35790;50.790;20.800;2022-09-17T03:22:56;11.48;;;4.42;;
40705;SDS011;35790;50.790;20.800;2022-09-17T03:25:44;9.03;;;4.30;;
40705;SDS011;35790;50.790;20.800;2022-09-17T03:28:34;9.05;;;4.47;;
40705;SDS011;35790;50.790;20.800;2022-09-17T03:31:21;7.25;;;4.00;;
40705;SDS011;35790;50.790;20.800;2022-09-17T03:34:08;6.03;;;3.87;;
40705;SDS011;35790;50.790;20.800;2022-09-17T03:36:56;6.47;;;4.12;;
40705;SDS011;35790;50.790;20.800;2022-09-17T03:39:43;6.67;;;4.35;;
40705;SDS011;35790;50.790;20.800;2022-09-17T03:42:30;9.83;;;4.20;;
40705;SDS011;35790;50.790;20.800;2022-09-17T03:45:17;7.03;;;4.12;;
40705;SDS011;35790;50.790;20.800;2022-09-17T03:48:05;7.10;;;4.10;;
40705;SDS011;35790;50.790;20.800;2022-09-17T03:50:52;5.60;;;3.52;;
40705;SDS011;35790;50.790;20.800;2022-09-17T03:53:39;6.00;;;3.98;;
40705;SDS011;35790;50.790;20.800;2022-09-17T03:56:27;5.53;;;3.85;;
40705;SDS011;35790;50.790;20.800;2022-09-17T03:59:14;7.62;;;4.25;;
40705;SDS011;35790;50.790;20.800;2022-09-17T04:02:01;6.40;;;3.98;;
40705;SDS011;35790;50.790;20.800;2022-09-17T04:04:49;7.75;;;4.15;;
40705;SDS011;35790;50.790;20.800;2022-09-17T04:07:38;4.42;;;3.27;;
40705;SDS011;35790;50.790;20.800;2022-09-17T04:10:26;6.75;;;3.60;;
40705;SDS011;35790;50.790;20.800;2022-09-17T04:13:14;5.83;;;3.80;;
40705;SDS011;35790;50.790;20.800;2022-09-17T04:16:02;16.35;;;4.25;;
40705;SDS011;35790;50.790;20.800;2022-09-17T04:18:50;79.37;;;7.37;;
40705;SDS011;35790;50.790;20.800;2022-09-17T04:21:37;14.45;;;5.10;;
40705;SDS011;35790;50.790;20.800;2022-09-17T04:24:24;14.35;;;5.58;;
40705;SDS011;35790;50.790;20.800;2022-09-17T04:27:12;13.43;;;5.30;;
40705;SDS011;35790;50.790;20.800;2022-09-17T04:29:59;6.20;;;4.62;;
40705;SDS011;35790;50.790;20.800;2022-09-17T04:32:46;12.68;;;5.45;;
40705;SDS011;35790;50.790;20.800;2022-09-17T04:35:34;18.98;;;6.87;;
40705;SDS011;35790;50.790;20.800;2022-09-17T04:38:21;12.68;;;5.65;;
40705;SDS011;35790;50.790;20.800;2022-09-17T04:41:09;18.70;;;8.08;;
40705;SDS011;35790;50.790;20.800;2022-09-17T04:43:56;10.20;;;6.62;;
40705;SDS011;35790;50.790;20.800;2022-09-17T04:46:44;18.10;;;6.35;;
40705;SDS011;35790;50.790;20.800;2022-09-17T04:49:31;12.63;;;6.35;;
40705;SDS011;35790;50.790;20.800;2022-09-17T04:52:19;8.53;;;6.17;;
40705;SDS011;35790;50.790;20.800;2022-09-17T04:55:06;8.38;;;5.97;;
40705;SDS011;35790;50.790;20.800;2022-09-17T04:57:54;11.35;;;6.75;;
40705;SDS011;35790;50.790;20.800;2022-09-17T05:00:41;13.55;;;7.50;;
40705;SDS011;35790;50.790;20.800;2022-09-17T05:03:28;12.23;;;7.67;;
40705;SDS011;35790;50.790;20.800;2022-09-17T05:06:16;12.23;;;7.20;;
40705;SDS011;35790;50.790;20.800;2022-09-17T05:09:03;8.05;;;6.58;;
40705;SDS011;35790;50.790;20.800;2022-09-17T05:11:51;11.05;;;7.65;;
40705;SDS011;35790;50.790;20.800;2022-09-17T05:14:38;11.68;;;6.92;;
40705;SDS011;35790;50.790;20.800;2022-09-17T05:17:25;9.00;;;6.33;;
40705;SDS011;35790;50.790;20.800;2022-09-17T05:20:13;7.62;;;5.65;;
40705;SDS011;35790;50.790;20.800;2022-09-17T05:23:02;8.93;;;5.80;;
40705;SDS011;35790;50.790;20.800;2022-09-17T05:25:50;11.78;;;6.12;;
40705;SDS011;35790;50.790;20.800;2022-09-17T05:28:37;12.03;;;6.47;;
40705;SDS011;35790;50.790;20.800;2022-09-17T05:31:24;10.90;;;6.62;;
40705;SDS011;35790;50.790;20.800;2022-09-17T05:34:12;11.08;;;6.12;;
40705;SDS011;35790;50.790;20.800;2022-09-17T05:36:59;10.88;;;6.20;;
40705;SDS011;35790;50.790;20.800;2022-09-17T05:39:46;9.05;;;5.42;;
40705;SDS011;35790;50.790;20.800;2022-09-17T05:42:34;7.35;;;5.30;;
40705;SDS011;35790;50.790;20.800;2022-09-17T05:45:21;8.60;;;5.90;;
40705;SDS011;35790;50.790;20.800;2022-09-17T05:48:10;6.75;;;5.22;;
40705;SDS011;35790;50.790;20.800;2022-09-17T05:50:59;10.43;;;4.78;;
40705;SDS011;35790;50.790;20.800;2022-09-17T05:53:48;6.50;;;4.72;;
40705;SDS011;35790;50.790;20.800;2022-09-17T05:56:35;6.85;;;4.50;;
40705;SDS011;35790;50.790;20.800;2022-09-17T05:59:23;7.87;;;5.15;;
40705;SDS011;35790;50.790;20.800;2022-09-17T06:02:11;7.33;;;4.97;;
40705;SDS011;35790;50.790;20.800;2022-09-17T06:04:59;11.65;;;5.72;;
40705;SDS011;35790;50.790;20.800;2022-09-17T06:07:48;12.30;;;6.00;;
40705;SDS011;35790;50.790;20.800;2022-09-17T06:10:36;10.95;;;5.95;;
40705;SDS011;35790;50.790;20.800;2022-09-17T06:13:24;9.83;;;6.62;;
40705;SDS011;35790;50.790;20.800;2022-09-17T06:16:12;9.68;;;7.35;;
40705;SDS011;35790;50.790;20.800;2022-09-17T06:18:59;8.18;;;6.45;;
40705;SDS011;35790;50.790;20.800;2022-09-17T06:21:48;10.28;;;7.08;;
40705;SDS011;35790;50.790;20.800;2022-09-17T06:24:36;11.05;;;6.92;;
40705;SDS011;35790;50.790;20.800;2022-09-17T06:27:23;7.65;;;6.15;;
40705;SDS011;35790;50.790;20.800;2022-09-17T06:30:12;11.25;;;6.78;;
40705;SDS011;35790;50.790;20.800;2022-09-17T06:33:00;9.30;;;7.08;;
40705;SDS011;35790;50.790;20.800;2022-09-17T06:35:47;11.12;;;6.10;;
40705;SDS011;35790;50.790;20.800;2022-09-17T06:38:35;9.18;;;6.42;;
40705;SDS011;35790;50.790;20.800;2022-09-17T06:41:22;8.45;;;6.53;;
40705;SDS011;35790;50.790;20.800;2022-09-17T06:44:09;10.23;;;7.80;;
40705;SDS011;35790;50.790;20.800;2022-09-17T06:46:57;10.20;;;7.45;;
40705;SDS011;35790;50.790;20.800;2022-09-17T06:49:44;10.40;;;7.05;;
40705;SDS011;35790;50.790;20.800;2022-09-17T06:52:32;11.68;;;7.78;;
40705;SDS011;35790;50.790;20.800;2022-09-17T06:55:20;10.03;;;7.53;;
40705;SDS011;35790;50.790;20.800;2022-09-17T06:58:07;10.08;;;7.53;;
40705;SDS011;35790;50.790;20.800;2022-09-17T07:01:01;11.57;;;7.67;;
40705;SDS011;35790;50.790;20.800;2022-09-17T07:03:49;10.03;;;7.60;;
40705;SDS011;35790;50.790;20.800;2022-09-17T07:06:37;16.42;;;8.23;;
40705;SDS011;35790;50.790;20.800;2022-09-17T07:09:24;13.15;;;8.20;;
40705;SDS011;35790;50.790;20.800;2022-09-17T07:12:12;10.98;;;7.65;;
40705;SDS011;35790;50.790;20.800;2022-09-17T07:14:59;13.58;;;7.83;;
40705;SDS011;35790;50.790;20.800;2022-09-17T07:17:47;9.50;;;7.45;;
40705;SDS011;35790;50.790;20.800;2022-09-17T07:20:36;11.65;;;7.97;;
40705;SDS011;35790;50.790;20.800;2022-09-17T07:23:24;12.88;;;6.90;;
40705;SDS011;35790;50.790;20.800;2022-09-17T07:26:13;8.70;;;6.62;;
40705;SDS011;35790;50.790;20.800;2022-09-17T07:29:01;11.60;;;7.00;;
40705;SDS011;35790;50.790;20.800;2022-09-17T07:31:48;8.50;;;7.00;;
40705;SDS011;35790;50.790;20.800;2022-09-17T07:34:35;10.72;;;6.30;;
40705;SDS011;35790;50.790;20.800;2022-09-17T07:37:23;10.28;;;6.10;;
40705;SDS011;35790;50.790;20.800;2022-09-17T07:40:10;8.03;;;6.12;;
40705;SDS011;35790;50.790;20.800;2022-09-17T07:42:58;9.10;;;5.92;;
40705;SDS011;35790;50.790;20.800;2022-09-17T07:45:46;8.88;;;5.20;;
40705;SDS011;35790;50.790;20.800;2022-09-17T07:48:33;7.10;;;4.72;;
40705;SDS011;35790;50.790;20.800;2022-09-17T07:51:21;8.45;;;5.12;;
40705;SDS011;35790;50.790;20.800;2022-09-17T07:54:09;12.30;;;6.12;;
40705;SDS011;35790;50.790;20.800;2022-09-17T07:56:57;7.37;;;4.50;;
40705;SDS011;35790;50.790;20.800;2022-09-17T07:59:44;6.87;;;4.28;;
40705;SDS011;35790;50.790;20.800;2022-09-17T08:02:32;10.23;;;4.40;;
40705;SDS011;35790;50.790;20.800;2022-09-17T08:05:20;8.13;;;4.25;;
40705;SDS011;35790;50.790;20.800;2022-09-17T08:08:08;6.05;;;3.67;;
40705;SDS011;35790;50.790;20.800;2022-09-17T08:10:58;5.35;;;4.08;;
40705;SDS011;35790;50.790;20.800;2022-09-17T08:13:49;5.58;;;4.22;;
40705;SDS011;35790;50.790;20.800;2022-09-17T08:16:38;3.62;;;3.22;;
40705;SDS011;35790;50.790;20.800;2022-09-17T08:19:26;5.65;;;3.30;;
40705;SDS011;35790;50.790;20.800;2022-09-17T08:22:17;5.87;;;3.55;;
40705;SDS011;35790;50.790;20.800;2022-09-17T08:25:05;6.28;;;3.67;;
40705;SDS011;35790;50.790;20.800;2022-09-17T08:27:54;4.72;;;3.37;;
40705;SDS011;35790;50.790;20.800;2022-09-17T08:30:41;5.90;;;3.10;;
40705;SDS011;35790;50.790;20.800;2022-09-17T08:33:32;6.17;;;3.50;;
40705;SDS011;35790;50.790;20.800;2022-09-17T08:36:21;6.05;;;3.45;;
40705;SDS011;35790;50.790;20.800;2022-09-17T08:39:10;6.90;;;3.10;;
40705;SDS011;35790;50.790;20.800;2022-09-17T08:42:03;4.72;;;3.10;;
40705;SDS011;35790;50.790;20.800;2022-09-17T08:44:54;4.60;;;3.08;;
40705;SDS011;35790;50.790;20.800;2022-09-17T08:47:43;4.25;;;2.60;;
40705;SDS011;35790;50.790;20.800;2022-09-17T08:50:33;5.33;;;2.83;;
40705;SDS011;35790;50.790;20.800;2022-09-17T08:53:33;4.30;;;2.95;;
40705;SDS011;35790;50.790;20.800;2022-09-17T08:56:23;7.03;;;2.90;;
40705;SDS011;35790;50.790;20.800;2022-09-17T09:05:19;3.70;;;2.20;;
40705;SDS011;35790;50.790;20.800;2022-09-17T09:08:29;5.37;;;2.20;;
40705;SDS011;35790;50.790;20.800;2022-09-17T09:11:22;4.87;;;2.37;;
40705;SDS011;35790;50.790;20.800;2022-09-17T09:14:13;3.60;;;2.37;;
40705;SDS011;35790;50.790;20.800;2022-09-17T09:17:07;5.00;;;2.55;;
40705;SDS011;35790;50.790;20.800;2022-09-17T09:19:55;5.17;;;2.60;;
40705;SDS011;35790;50.790;20.800;2022-09-17T09:22:46;6.25;;;2.87;;
40705;SDS011;35790;50.790;20.800;2022-09-17T09:25:38;4.92;;;2.67;;
40705;SDS011;35790;50.790;20.800;2022-09-17T09:34:38;3.37;;;2.10;;
40705;SDS011;35790;50.790;20.800;2022-09-17T09:37:27;3.70;;;2.00;;
40705;SDS011;35790;50.790;20.800;2022-09-17T09:46:30;3.95;;;2.20;;
40705;SDS011;35790;50.790;20.800;2022-09-17T09:55:27;2.75;;;1.80;;
40705;SDS011;35790;50.790;20.800;2022-09-17T10:01:24;2.80;;;1.67;;
40705;SDS011;35790;50.790;20.800;2022-09-17T10:04:15;3.92;;;1.60;;
40705;SDS011;35790;50.790;20.800;2022-09-17T10:07:09;3.27;;;1.52;;
40705;SDS011;35790;50.790;20.800;2022-09-17T10:10:06;3.30;;;2.20;;
40705;SDS011;35790;50.790;20.800;2022-09-17T10:12:48;5.05;;;1.85;;
40705;SDS011;35790;50.790;20.800;2022-09-17T10:15:36;3.95;;;1.95;;
40705;SDS011;35790;50.790;20.800;2022-09-17T10:18:24;2.47;;;1.80;;
40705;SDS011;35790;50.790;20.800;2022-09-17T10:21:18;4.00;;;1.60;;
40705;SDS011;35790;50.790;20.800;2022-09-17T10:27:15;3.62;;;1.77;;
40705;SDS011;35790;50.790;20.800;2022-09-17T10:36:03;3.12;;;1.80;;
40705;SDS011;35790;50.790;20.800;2022-09-17T10:38:52;4.53;;;1.50;;
40705;SDS011;35790;50.790;20.800;2022-09-17T10:41:41;3.17;;;1.60;;
40705;SDS011;35790;50.790;20.800;2022-09-17T10:44:32;3.70;;;1.70;;
40705;SDS011;35790;50.790;20.800;2022-09-17T10:47:28;2.10;;;1.60;;
40705;SDS011;35790;50.790;20.800;2022-09-17T10:50:23;4.20;;;1.70;;
40705;SDS011;35790;50.790;20.800;2022-09-17T10:53:17;2.08;;;1.20;;
40705;SDS011;35790;50.790;20.800;2022-09-17T10:59:13;2.72;;;1.25;;
40705;SDS011;35790;50.790;20.800;2022-09-17T11:14:34;1.98;;;1.25;;
40705;SDS011;35790;50.790;20.800;2022-09-17T11:17:47;1.80;;;1.50;;
40705;SDS011;35790;50.790;20.800;2022-09-17T11:20:41;1.55;;;1.40;;
40705;SDS011;35790;50.790;20.800;2022-09-17T11:35:48;1.65;;;1.20;;
40705;SDS011;35790;50.790;20.800;2022-09-17T11:41:30;9.48;;;3.55;;
40705;SDS011;35790;50.790;20.800;2022-09-17T11:44:24;4.60;;;2.30;;
40705;SDS011;35790;50.790;20.800;2022-09-17T11:47:25;3.20;;;2.05;;
40705;SDS011;35790;50.790;20.800;2022-09-17T11:50:24;4.00;;;1.75;;
40705;SDS011;35790;50.790;20.800;2022-09-17T11:56:28;4.05;;;1.40;;
40705;SDS011;35790;50.790;20.800;2022-09-17T11:59:34;3.67;;;1.80;;
40705;SDS011;35790;50.790;20.800;2022-09-17T12:02:43;3.70;;;1.60;;
40705;SDS011;35790;50.790;20.800;2022-09-17T12:05:35;2.83;;;1.70;;
40705;SDS011;35790;50.790;20.800;2022-09-17T12:08:38;2.80;;;1.72;;
40705;SDS011;35790;50.790;20.800;2022-09-17T12:11:33;3.60;;;1.82;;
40705;SDS011;35790;50.790;20.800;2022-09-17T12:14:38;1.82;;;1.72;;
40705;SDS011;35790;50.790;20.800;2022-09-17T12:17:40;2.87;;;1.95;;
40705;SDS011;35790;50.790;20.800;2022-09-17T12:20:30;2.90;;;1.50;;
40705;SDS011;35790;50.790;20.800;2022-09-17T12:23:19;1.90;;;1.50;;
40705;SDS011;35790;50.790;20.800;2022-09-17T12:26:29;3.72;;;1.90;;
40705;SDS011;35790;50.790;20.800;2022-09-17T12:35:54;2.17;;;1.80;;
40705;SDS011;35790;50.790;20.800;2022-09-17T12:38:50;3.15;;;1.95;;
40705;SDS011;35790;50.790;20.800;2022-09-17T12:41:44;4.42;;;1.80;;
40705;SDS011;35790;50.790;20.800;2022-09-17T12:51:01;4.42;;;2.02;;
40705;SDS011;35790;50.790;20.800;2022-09-17T12:54:07;3.55;;;1.95;;
40705;SDS011;35790;50.790;20.800;2022-09-17T13:00:10;5.08;;;1.87;;
40705;SDS011;35790;50.790;20.800;2022-09-17T13:23:43;5.22;;;2.33;;
40705;SDS011;35790;50.790;20.800;2022-09-17T13:26:34;3.10;;;2.40;;
40705;SDS011;35790;50.790;20.800;2022-09-17T13:41:18;2.10;;;1.90;;
40705;SDS011;35790;50.790;20.800;2022-09-17T13:44:08;4.10;;;2.05;;
40705;SDS011;35790;50.790;20.800;2022-09-17T13:47:07;2.45;;;2.00;;
40705;SDS011;35790;50.790;20.800;2022-09-17T13:52:49;3.02;;;2.17;;
40705;SDS011;35790;50.790;20.800;2022-09-17T13:55:48;4.33;;;2.42;;
40705;SDS011;35790;50.790;20.800;2022-09-17T13:58:39;3.72;;;2.10;;
40705;SDS011;35790;50.790;20.800;2022-09-17T14:04:46;2.55;;;2.20;;
40705;SDS011;35790;50.790;20.800;2022-09-17T14:07:43;4.12;;;2.65;;
40705;SDS011;35790;50.790;20.800;2022-09-17T14:10:38;5.15;;;2.52;;
40705;SDS011;35790;50.790;20.800;2022-09-17T14:13:37;3.77;;;2.58;;
40705;SDS011;35790;50.790;20.800;2022-09-17T14:22:35;3.87;;;3.25;;
40705;SDS011;35790;50.790;20.800;2022-09-17T14:25:35;4.95;;;3.17;;
40705;SDS011;35790;50.790;20.800;2022-09-17T14:28:27;3.80;;;3.08;;
40705;SDS011;35790;50.790;20.800;2022-09-17T14:31:24;4.37;;;2.98;;
40705;SDS011;35790;50.790;20.800;2022-09-17T14:34:15;3.15;;;2.65;;
40705;SDS011;35790;50.790;20.800;2022-09-17T14:39:57;3.92;;;2.40;;
40705;SDS011;35790;50.790;20.800;2022-09-17T14:42:45;4.58;;;2.65;;
40705;SDS011;35790;50.790;20.800;2022-09-17T14:45:38;5.30;;;3.42;;
40705;SDS011;35790;50.790;20.800;2022-09-17T14:48:28;4.85;;;3.60;;
40705;SDS011;35790;50.790;20.800;2022-09-17T14:57:02;3.35;;;3.05;;
40705;SDS011;35790;50.790;20.800;2022-09-17T15:02:42;3.02;;;2.50;;
40705;SDS011;35790;50.790;20.800;2022-09-17T15:05:31;5.37;;;2.40;;
40705;SDS011;35790;50.790;20.800;2022-09-17T15:08:22;2.87;;;2.50;;
40705;SDS011;35790;50.790;20.800;2022-09-17T15:11:12;4.15;;;2.55;;
40705;SDS011;35790;50.790;20.800;2022-09-17T15:14:04;2.72;;;2.50;;
40705;SDS011;35790;50.790;20.800;2022-09-17T15:16:51;4.58;;;2.75;;
40705;SDS011;35790;50.790;20.800;2022-09-17T15:19:45;6.17;;;2.40;;
40705;SDS011;35790;50.790;20.800;2022-09-17T15:22:36;4.72;;;2.70;;
40705;SDS011;35790;50.790;20.800;2022-09-17T15:25:25;2.70;;;2.50;;
40705;SDS011;35790;50.790;20.800;2022-09-17T15:31:03;5.58;;;3.50;;
40705;SDS011;35790;50.790;20.800;2022-09-17T15:33:52;4.95;;;4.17;;
40705;SDS011;35790;50.790;20.800;2022-09-17T15:36:39;5.22;;;4.72;;
40705;SDS011;35790;50.790;20.800;2022-09-17T15:39:35;6.40;;;5.47;;
40705;SDS011;35790;50.790;20.800;2022-09-17T15:45:19;7.33;;;5.80;;
40705;SDS011;35790;50.790;20.800;2022-09-17T15:50:51;7.12;;;6.37;;
40705;SDS011;35790;50.790;20.800;2022-09-17T15:53:49;8.03;;;5.83;;
40705;SDS011;35790;50.790;20.800;2022-09-17T15:56:32;8.85;;;6.80;;
40705;SDS011;35790;50.790;20.800;2022-09-17T15:59:28;10.35;;;6.22;;
40705;SDS011;35790;50.790;20.800;2022-09-17T16:08:19;7.60;;;5.33;;
40705;SDS011;35790;50.790;20.800;2022-09-17T16:11:08;11.18;;;6.65;;
40705;SDS011;35790;50.790;20.800;2022-09-17T16:13:56;8.28;;;6.42;;
40705;SDS011;35790;50.790;20.800;2022-09-17T16:16:44;10.65;;;6.75;;
40705;SDS011;35790;50.790;20.800;2022-09-17T16:19:32;9.58;;;6.58;;
40705;SDS011;35790;50.790;20.800;2022-09-17T16:22:19;9.18;;;6.05;;
40705;SDS011;35790;50.790;20.800;2022-09-17T16:25:07;9.23;;;5.85;;
40705;SDS011;35790;50.790;20.800;2022-09-17T16:27:58;10.25;;;6.12;;
40705;SDS011;35790;50.790;20.800;2022-09-17T16:30:47;7.95;;;5.80;;
40705;SDS011;35790;50.790;20.800;2022-09-17T16:33:36;12.47;;;5.97;;
40705;SDS011;35790;50.790;20.800;2022-09-17T16:36:23;9.60;;;6.30;;
40705;SDS011;35790;50.790;20.800;2022-09-17T16:39:12;8.85;;;6.45;;
40705;SDS011;35790;50.790;20.800;2022-09-17T16:41:59;9.05;;;6.78;;
40705;SDS011;35790;50.790;20.800;2022-09-17T16:44:46;11.28;;;7.03;;
40705;SDS011;35790;50.790;20.800;2022-09-17T16:47:36;10.30;;;7.22;;
40705;SDS011;35790;50.790;20.800;2022-09-17T16:50:25;11.85;;;6.87;;
40705;SDS011;35790;50.790;20.800;2022-09-17T16:53:13;10.45;;;7.22;;
40705;SDS011;35790;50.790;20.800;2022-09-17T16:56:00;10.20;;;7.78;;
40705;SDS011;35790;50.790;20.800;2022-09-17T16:58:53;11.53;;;7.97;;
40705;SDS011;35790;50.790;20.800;2022-09-17T17:01:41;13.43;;;8.98;;
40705;SDS011;35790;50.790;20.800;2022-09-17T17:04:29;12.15;;;7.87;;
40705;SDS011;35790;50.790;20.800;2022-09-17T17:07:16;11.55;;;7.30;;
40705;SDS011;35790;50.790;20.800;2022-09-17T17:10:04;7.95;;;6.80;;
40705;SDS011;35790;50.790;20.800;2022-09-17T17:12:53;9.90;;;5.57;;
40705;SDS011;35790;50.790;20.800;2022-09-17T17:15:40;9.68;;;6.83;;
40705;SDS011;35790;50.790;20.800;2022-09-17T17:18:28;8.03;;;6.53;;
40705;SDS011;35790;50.790;20.800;2022-09-17T17:21:16;8.43;;;6.67;;
40705;SDS011;35790;50.790;20.800;2022-09-17T17:24:03;7.85;;;6.30;;
40705;SDS011;35790;50.790;20.800;2022-09-17T17:26:51;9.23;;;6.50;;
40705;SDS011;35790;50.790;20.800;2022-09-17T17:29:38;8.88;;;6.72;;
40705;SDS011;35790;50.790;20.800;2022-09-17T17:32:26;7.62;;;6.80;;
40705;SDS011;35790;50.790;20.800;2022-09-17T17:35:13;9.63;;;6.50;;
40705;SDS011;35790;50.790;20.800;2022-09-17T17:38:01;8.83;;;6.62;;
40705;SDS011;35790;50.790;20.800;2022-09-17T17:40:48;10.90;;;7.97;;
40705;SDS011;35790;50.790;20.800;2022-09-17T17:43:36;10.90;;;7.22;;
40705;SDS011;35790;50.790;20.800;2022-09-17T17:46:23;9.75;;;7.28;;
40705;SDS011;35790;50.790;20.800;2022-09-17T17:49:11;13.25;;;8.03;;
40705;SDS011;35790;50.790;20.800;2022-09-17T17:51:58;10.03;;;7.53;;
40705;SDS011;35790;50.790;20.800;2022-09-17T17:54:45;12.88;;;8.33;;
40705;SDS011;35790;50.790;20.800;2022-09-17T17:57:33;9.70;;;7.97;;
40705;SDS011;35790;50.790;20.800;2022-09-17T18:00:20;11.48;;;7.10;;
40705;SDS011;35790;50.790;20.800;2022-09-17T18:03:08;10.00;;;7.30;;
40705;SDS011;35790;50.790;20.800;2022-09-17T18:05:56;9.48;;;7.83;;
40705;SDS011;35790;50.790;20.800;2022-09-17T18:08:45;10.03;;;7.78;;
40705;SDS011;35790;50.790;20.800;2022-09-17T18:11:34;11.15;;;7.90;;
40705;SDS011;35790;50.790;20.800;2022-09-17T18:14:21;11.30;;;7.30;;
40705;SDS011;35790;50.790;20.800;2022-09-17T18:17:08;11.00;;;7.12;;
40705;SDS011;35790;50.790;20.800;2022-09-17T18:19:56;10.88;;;7.90;;
40705;SDS011;35790;50.790;20.800;2022-09-17T18:22:43;9.85;;;7.22;;
40705;SDS011;35790;50.790;20.800;2022-09-17T18:25:31;8.40;;;7.25;;
40705;SDS011;35790;50.790;20.800;2022-09-17T18:28:18;13.40;;;7.15;;
40705;SDS011;35790;50.790;20.800;2022-09-17T18:31:07;11.65;;;8.20;;
40705;SDS011;35790;50.790;20.800;2022-09-17T18:33:57;10.93;;;7.72;;
40705;SDS011;35790;50.790;20.800;2022-09-17T18:36:48;9.55;;;7.55;;
40705;SDS011;35790;50.790;20.800;2022-09-17T18:39:43;13.83;;;8.30;;
40705;SDS011;35790;50.790;20.800;2022-09-17T18:42:33;10.25;;;7.92;;
40705;SDS011;35790;50.790;20.800;2022-09-17T18:45:22;11.22;;;7.92;;
40705;SDS011;35790;50.790;20.800;2022-09-17T18:48:10;8.88;;;7.97;;
40705;SDS011;35790;50.790;20.800;2022-09-17T18:51:01;12.45;;;8.53;;
40705;SDS011;35790;50.790;20.800;2022-09-17T18:53:51;12.20;;;8.33;;
40705;SDS011;35790;50.790;20.800;2022-09-17T18:56:39;12.73;;;8.83;;
40705;SDS011;35790;50.790;20.800;2022-09-17T18:59:26;13.13;;;8.25;;
40705;SDS011;35790;50.790;20.800;2022-09-17T19:02:14;11.38;;;8.00;;
40705;SDS011;35790;50.790;20.800;2022-09-17T19:05:02;13.05;;;8.90;;
40705;SDS011;35790;50.790;20.800;2022-09-17T19:07:49;10.03;;;8.50;;
40705;SDS011;35790;50.790;20.800;2022-09-17T19:10:38;10.95;;;8.75;;
40705;SDS011;35790;50.790;20.800;2022-09-17T19:13:31;13.00;;;9.23;;
40705;SDS011;35790;50.790;20.800;2022-09-17T19:16:21;12.68;;;8.38;;
40705;SDS011;35790;50.790;20.800;2022-09-17T19:19:08;11.63;;;8.80;;
40705;SDS011;35790;50.790;20.800;2022-09-17T19:21:56;13.08;;;9.60;;
40705;SDS011;35790;50.790;20.800;2022-09-17T19:24:43;17.75;;;11.95;;
40705;SDS011;35790;50.790;20.800;2022-09-17T19:30:22;19.15;;;12.60;;
40705;SDS011;35790;50.790;20.800;2022-09-17T19:33:11;15.80;;;11.03;;
40705;SDS011;35790;50.790;20.800;2022-09-17T19:35:59;11.60;;;8.90;;
40705;SDS011;35790;50.790;20.800;2022-09-17T19:38:47;14.15;;;8.95;;
40705;SDS011;35790;50.790;20.800;2022-09-17T19:41:34;11.57;;;8.50;;
40705;SDS011;35790;50.790;20.800;2022-09-17T19:44:22;10.50;;;9.30;;
40705;SDS011;35790;50.790;20.800;2022-09-17T19:47:11;13.80;;;10.08;;
40705;SDS011;35790;50.790;20.800;2022-09-17T19:50:02;12.65;;;9.05;;
40705;SDS011;35790;50.790;20.800;2022-09-17T19:52:51;16.35;;;10.58;;
40705;SDS011;35790;50.790;20.800;2022-09-17T19:55:39;14.28;;;10.03;;
40705;SDS011;35790;50.790;20.800;2022-09-17T19:58:28;17.12;;;11.70;;
40705;SDS011;35790;50.790;20.800;2022-09-17T20:01:15;17.12;;;11.28;;
40705;SDS011;35790;50.790;20.800;2022-09-17T20:04:03;19.15;;;13.15;;
40705;SDS011;35790;50.790;20.800;2022-09-17T20:06:51;17.23;;;12.43;;